createdAt,value
2023-04-27T00:01:43.230Z,3.80
2023-04-27T00:04:09.837Z,4.07
2023-04-27T00:06:36.341Z,3.70
2023-04-27T00:09:03.581Z,3.63
2023-04-27T00:11:29.949Z,3.85
2023-04-27T00:13:56.250Z,3.72
2023-04-27T00:16:22.862Z,4.05
2023-04-27T00:18:49.340Z,3.80
2023-04-27T00:21:15.665Z,3.50
2023-04-27T00:23:42.101Z,3.65
2023-04-27T00:26:08.428Z,3.95
2023-04-27T00:31:03.544Z,3.42
2023-04-27T00:33:30.182Z,3.33
2023-04-27T00:36:00.693Z,3.40
2023-04-27T00:38:27.597Z,3.72
2023-04-27T00:43:20.331Z,3.50
2023-04-27T00:45:47.098Z,3.80
2023-04-27T00:48:13.588Z,3.88
2023-04-27T00:53:07.736Z,3.35
2023-04-27T00:55:34.199Z,3.90
2023-04-27T00:58:02.079Z,3.75
2023-04-27T01:00:28.446Z,4.00
2023-04-27T01:02:55.467Z,3.80
2023-04-27T01:05:22.897Z,3.72
2023-04-27T01:07:49.330Z,4.35
2023-04-27T01:10:15.825Z,4.22
2023-04-27T01:12:42.175Z,3.63
2023-04-27T01:15:09.839Z,4.22
2023-04-27T01:17:36.335Z,3.97
2023-04-27T01:20:06.806Z,4.03
2023-04-27T01:22:33.284Z,4.00
2023-04-27T01:24:59.637Z,3.83
2023-04-27T01:27:26.030Z,3.45
2023-04-27T01:29:52.358Z,4.18
2023-04-27T01:32:18.668Z,3.40
2023-04-27T01:34:45.284Z,3.90
2023-04-27T01:37:11.714Z,3.75
2023-04-27T01:39:38.279Z,3.45
2023-04-27T01:42:04.787Z,3.42
2023-04-27T01:44:31.167Z,3.65
2023-04-27T01:46:57.581Z,3.97
2023-04-27T01:49:24.391Z,3.70
2023-04-27T01:51:51.490Z,3.63
2023-04-27T01:56:44.208Z,3.70
2023-04-27T01:59:10.686Z,3.63
2023-04-27T02:01:37.205Z,3.60
2023-04-27T02:04:04.371Z,3.85
2023-04-27T02:06:31.278Z,3.53
2023-04-27T02:11:24.290Z,3.83
2023-04-27T02:13:50.855Z,3.60
2023-04-27T02:16:17.443Z,3.50
2023-04-27T02:18:44.588Z,3.85
2023-04-27T02:21:11.642Z,4.18
2023-04-27T02:23:38.083Z,3.50
2023-04-27T02:26:04.515Z,3.70
2023-04-27T02:28:31.103Z,3.50
2023-04-27T02:30:58.317Z,3.47
2023-04-27T02:33:25.082Z,4.07
2023-04-27T02:38:17.811Z,3.40
2023-04-27T02:40:44.274Z,3.83
2023-04-27T02:43:10.678Z,3.85
2023-04-27T02:45:38.371Z,3.67
2023-04-27T02:48:05.753Z,3.45
2023-04-27T02:50:33.696Z,3.67
2023-04-27T02:53:00.374Z,3.85
2023-04-27T02:55:27.494Z,3.80
2023-04-27T02:57:53.922Z,3.67
2023-04-27T03:00:20.365Z,3.80
2023-04-27T03:02:46.858Z,3.70
2023-04-27T03:05:13.302Z,3.95
2023-04-27T03:07:39.699Z,3.65
2023-04-27T03:10:06.228Z,3.75
2023-04-27T03:12:32.594Z,4.00
2023-04-27T03:14:59.758Z,3.80
2023-04-27T03:17:26.201Z,4.07
2023-04-27T03:19:52.620Z,3.92
2023-04-27T03:22:18.958Z,4.40
2023-04-27T03:24:45.336Z,4.22
2023-04-27T03:27:11.751Z,4.00
2023-04-27T03:29:38.169Z,3.90
2023-04-27T03:32:04.714Z,4.22
2023-04-27T03:34:31.522Z,4.03
2023-04-27T03:36:57.935Z,4.15
2023-04-27T03:39:24.378Z,4.60
2023-04-27T03:41:50.825Z,5.10
2023-04-27T03:44:17.352Z,5.07
2023-04-27T03:46:43.798Z,5.18
2023-04-27T03:49:10.564Z,4.85
2023-04-27T03:51:38.354Z,5.03
2023-04-27T03:54:04.756Z,5.15
2023-04-27T03:56:31.434Z,5.15
2023-04-27T03:58:58.159Z,4.70
2023-04-27T04:01:32.027Z,4.32
2023-04-27T04:03:58.759Z,4.80
2023-04-27T04:08:51.589Z,5.28
2023-04-27T04:11:17.977Z,5.85
2023-04-27T04:13:44.474Z,5.55
2023-04-27T04:16:11.009Z,5.60
2023-04-27T04:18:39.149Z,5.90
2023-04-27T04:23:33.010Z,4.97
2023-04-27T04:25:59.836Z,5.57
2023-04-27T04:28:30.899Z,6.03
2023-04-27T04:30:57.376Z,6.60
2023-04-27T04:33:24.292Z,5.47
2023-04-27T04:38:18.095Z,4.60
2023-04-27T04:43:13.340Z,4.63
2023-04-27T04:45:40.511Z,4.82
2023-04-27T04:48:07.012Z,5.13
2023-04-27T04:50:34.677Z,4.75
2023-04-27T04:53:01.454Z,5.30
2023-04-27T04:57:54.709Z,5.30
2023-04-27T05:00:21.245Z,5.40
2023-04-27T05:02:47.725Z,5.25
2023-04-27T05:05:14.208Z,4.72
2023-04-27T05:07:40.735Z,5.10
2023-04-27T05:10:08.327Z,5.00
2023-04-27T05:12:34.847Z,5.32
2023-04-27T05:15:01.233Z,5.18
2023-04-27T05:17:27.679Z,5.63
2023-04-27T05:19:54.404Z,5.75
2023-04-27T05:22:20.979Z,5.63
2023-04-27T05:24:47.383Z,5.78
2023-04-27T05:27:14.746Z,5.47
2023-04-27T05:29:41.183Z,5.93
2023-04-27T05:32:07.597Z,6.72
2023-04-27T05:34:34.080Z,7.57
2023-04-27T05:37:00.488Z,7.25
2023-04-27T05:39:27.738Z,8.27
2023-04-27T05:41:54.094Z,7.43
2023-04-27T05:44:20.573Z,8.43
2023-04-27T05:46:46.950Z,8.30
2023-04-27T05:49:13.453Z,8.38
2023-04-27T05:51:39.993Z,7.63
2023-04-27T05:54:07.794Z,7.88
2023-04-27T05:56:34.169Z,7.63
2023-04-27T05:59:02.545Z,7.90
2023-04-27T06:01:30.471Z,6.82
2023-04-27T06:04:01.653Z,7.25
2023-04-27T06:06:31.815Z,6.57
2023-04-27T06:08:58.823Z,6.40
2023-04-27T06:11:28.539Z,6.10
2023-04-27T06:13:54.915Z,6.63
2023-04-27T06:16:21.528Z,7.10
2023-04-27T06:18:49.934Z,6.40
2023-04-27T06:21:16.408Z,6.10
2023-04-27T06:23:42.887Z,6.60
2023-04-27T06:26:09.415Z,5.72
2023-04-27T06:28:35.868Z,5.90
2023-04-27T06:31:02.281Z,5.80
2023-04-27T06:33:28.750Z,5.05
2023-04-27T06:35:55.197Z,5.15
2023-04-27T06:38:22.236Z,5.72
2023-04-27T06:40:52.383Z,5.10
2023-04-27T06:43:18.945Z,5.25
2023-04-27T06:45:45.451Z,5.82
2023-04-27T06:48:12.040Z,5.38
2023-04-27T06:50:38.413Z,4.45
2023-04-27T06:53:04.932Z,4.68
2023-04-27T06:55:31.349Z,5.35
2023-04-27T06:57:57.760Z,4.53
2023-04-27T07:00:24.190Z,4.20
2023-04-27T07:02:51.520Z,4.22
2023-04-27T07:05:18.567Z,4.28
2023-04-27T07:07:44.922Z,3.55
2023-04-27T07:10:11.436Z,3.83
2023-04-27T07:12:38.642Z,3.97
2023-04-27T07:15:06.550Z,3.95
2023-04-27T07:17:33.028Z,3.90
2023-04-27T07:19:59.983Z,3.60
2023-04-27T07:22:26.640Z,3.60
2023-04-27T07:24:52.973Z,3.47
2023-04-27T07:27:20.400Z,3.10
2023-04-27T07:29:47.170Z,3.10
2023-04-27T07:32:13.781Z,3.10
2023-04-27T07:37:19.604Z,2.83
2023-04-27T07:39:46.565Z,2.90
2023-04-27T07:42:13.179Z,3.03
2023-04-27T07:44:40.748Z,2.83
2023-04-27T07:47:07.335Z,2.88
2023-04-27T07:49:35.456Z,2.53
2023-04-27T07:52:01.819Z,2.95
2023-04-27T07:54:28.192Z,2.53
2023-04-27T07:56:54.737Z,2.90
2023-04-27T07:59:21.113Z,2.67
2023-04-27T08:01:47.915Z,2.53
2023-04-27T08:04:16.193Z,2.95
2023-04-27T08:06:43.161Z,2.78
2023-04-27T08:09:10.025Z,3.28
2023-04-27T08:14:02.772Z,3.75
2023-04-27T08:16:29.310Z,3.00
2023-04-27T08:18:55.733Z,2.78
2023-04-27T08:21:22.065Z,3.00
2023-04-27T08:23:48.426Z,2.42
2023-04-27T08:26:15.982Z,2.88
2023-04-27T08:28:42.475Z,2.40
2023-04-27T08:31:09.091Z,2.80
2023-04-27T08:33:35.567Z,2.65
2023-04-27T08:36:01.904Z,3.25
2023-04-27T08:38:28.228Z,2.13
2023-04-27T08:40:54.615Z,2.47
2023-04-27T08:43:21.069Z,2.38
2023-04-27T08:45:48.725Z,2.70
2023-04-27T08:48:15.204Z,2.90
2023-04-27T08:50:43.485Z,2.88
2023-04-27T08:53:20.849Z,2.53
2023-04-27T08:55:47.401Z,2.22
2023-04-27T08:58:13.807Z,2.28
2023-04-27T09:00:45.153Z,2.13
2023-04-27T09:03:24.891Z,2.20
2023-04-27T09:06:03.424Z,1.90
2023-04-27T09:08:48.390Z,2.28
2023-04-27T09:11:15.670Z,2.33
2023-04-27T09:13:45.011Z,2.60
2023-04-27T09:16:15.020Z,2.25
2023-04-27T09:18:42.433Z,1.90
2023-04-27T09:21:08.933Z,2.20
2023-04-27T09:23:36.929Z,2.08
2023-04-27T09:26:07.957Z,2.03
2023-04-27T09:28:35.352Z,2.20
2023-04-27T09:31:03.083Z,2.30
2023-04-27T09:33:31.604Z,1.92
2023-04-27T09:35:58.638Z,2.42
2023-04-27T09:38:25.512Z,2.30
2023-04-27T09:40:52.614Z,2.28
2023-04-27T09:43:19.189Z,2.80
2023-04-27T09:53:15.112Z,2.65
2023-04-27T09:55:48.225Z,2.90
2023-04-27T09:58:23.910Z,2.95
2023-04-27T10:00:56.423Z,2.80
2023-04-27T10:03:41.529Z,3.15
2023-04-27T10:06:34.639Z,3.10
2023-04-27T10:09:06.018Z,2.80
2023-04-27T10:11:47.798Z,2.90
2023-04-27T10:14:18.354Z,3.10
2023-04-27T10:16:46.932Z,3.20
2023-04-27T10:19:14.292Z,2.83
2023-04-27T10:21:53.649Z,3.13
2023-04-27T10:24:30.987Z,3.30
2023-04-27T10:27:01.066Z,3.03
2023-04-27T10:29:34.849Z,3.72
2023-04-27T10:32:05.787Z,3.28
2023-04-27T10:34:34.431Z,2.80
2023-04-27T10:37:11.007Z,2.88
2023-04-27T10:39:47.957Z,3.40
2023-04-27T10:42:26.116Z,2.92
2023-04-27T10:44:54.603Z,2.95
2023-04-27T10:47:22.108Z,3.20
2023-04-27T10:49:48.491Z,3.70
2023-04-27T10:52:14.819Z,3.10
2023-04-27T10:54:45.345Z,3.30
2023-04-27T10:57:12.495Z,3.42
2023-04-27T10:59:49.883Z,3.38
2023-04-27T11:02:16.558Z,3.72
2023-04-27T11:04:43.051Z,3.60
2023-04-27T11:09:37.991Z,3.05
2023-04-27T11:12:07.986Z,3.70
2023-04-27T11:14:37.556Z,3.67
2023-04-27T11:17:07.011Z,3.78
2023-04-27T11:19:33.584Z,3.00
2023-04-27T11:24:53.134Z,3.63
2023-04-27T11:27:43.598Z,3.40
2023-04-27T11:30:21.816Z,3.58
2023-04-27T11:32:48.968Z,4.28
2023-04-27T11:35:16.593Z,3.90
2023-04-27T11:37:43.374Z,3.60
2023-04-27T11:40:15.079Z,4.00
2023-04-27T11:42:47.069Z,3.97
2023-04-27T11:45:13.660Z,3.75
2023-04-27T11:47:46.505Z,3.65
2023-04-27T11:50:12.939Z,3.90
2023-04-27T11:52:40.230Z,4.20
2023-04-27T11:55:15.672Z,4.18
2023-04-27T11:57:42.298Z,3.90
2023-04-27T12:00:14.260Z,3.88
2023-04-27T12:02:42.326Z,4.07
2023-04-27T12:05:10.063Z,3.67
2023-04-27T12:07:36.892Z,3.78
2023-04-27T12:10:03.342Z,4.47
2023-04-27T12:12:29.696Z,4.15
2023-04-27T12:14:56.278Z,4.30
2023-04-27T12:19:48.956Z,4.28
2023-04-27T12:22:15.548Z,3.88
2023-04-27T12:24:41.936Z,3.88
2023-04-27T12:27:08.471Z,4.78
2023-04-27T12:29:34.808Z,4.20
2023-04-27T12:32:01.531Z,4.38
2023-04-27T12:34:28.496Z,4.30
2023-04-27T12:36:54.880Z,4.53
2023-04-27T12:41:48.393Z,4.63
2023-04-27T12:44:16.107Z,4.25
2023-04-27T12:46:43.208Z,4.38
2023-04-27T12:49:10.424Z,4.88
2023-04-27T12:51:37.381Z,4.70
2023-04-27T12:54:04.216Z,4.80
2023-04-27T12:56:31.328Z,4.97
2023-04-27T12:58:58.099Z,4.50
2023-04-27T13:01:26.163Z,4.22
2023-04-27T13:03:57.261Z,5.45
2023-04-27T13:06:24.517Z,4.22
2023-04-27T13:08:50.968Z,4.90
2023-04-27T13:11:17.965Z,4.57
2023-04-27T13:13:47.780Z,4.50
2023-04-27T13:16:14.392Z,4.78
2023-04-27T13:18:41.128Z,4.63
2023-04-27T13:21:08.086Z,4.57
2023-04-27T13:23:34.664Z,4.25
2023-04-27T13:26:01.474Z,4.47
2023-04-27T13:28:27.813Z,4.50
2023-04-27T13:30:54.273Z,4.85
2023-04-27T13:33:23.235Z,4.90
2023-04-27T13:35:50.678Z,4.38
2023-04-27T13:38:19.878Z,4.38
2023-04-27T13:40:46.351Z,4.60
2023-04-27T13:43:12.712Z,4.30
2023-04-27T13:45:39.733Z,4.70
2023-04-27T13:48:06.281Z,4.30
2023-04-27T13:50:32.961Z,5.10
2023-04-27T13:53:01.221Z,4.90
2023-04-27T13:55:27.577Z,4.22
2023-04-27T13:57:53.900Z,4.88
2023-04-27T14:00:20.485Z,4.78
2023-04-27T14:02:47.044Z,4.40
2023-04-27T14:05:13.493Z,4.40
2023-04-27T14:07:39.853Z,4.70
2023-04-27T14:10:06.907Z,4.10
2023-04-27T14:12:33.387Z,4.22
2023-04-27T14:14:59.775Z,4.15
2023-04-27T14:17:26.680Z,3.97
2023-04-27T14:19:53.028Z,4.13
2023-04-27T14:22:19.385Z,4.22
2023-04-27T14:24:46.481Z,4.57
2023-04-27T14:27:12.861Z,4.25
2023-04-27T14:29:39.197Z,4.25
2023-04-27T14:32:06.318Z,4.25
2023-04-27T14:34:32.969Z,4.97
2023-04-27T14:36:59.349Z,4.40
2023-04-27T14:39:28.024Z,4.00
2023-04-27T14:41:54.453Z,4.00
2023-04-27T14:44:21.024Z,4.22
2023-04-27T14:46:47.474Z,4.93
2023-04-27T14:49:13.993Z,4.00
2023-04-27T14:51:42.761Z,4.40
2023-04-27T14:54:10.116Z,4.15
2023-04-27T14:56:36.519Z,3.85
2023-04-27T14:59:03.207Z,3.53
2023-04-27T15:01:29.886Z,3.80
2023-04-27T15:03:56.497Z,3.20
2023-04-27T15:06:24.421Z,3.08
2023-04-27T15:08:51.048Z,3.08
2023-04-27T15:11:18.670Z,3.30
2023-04-27T15:13:45.218Z,2.80
2023-04-27T15:16:11.636Z,3.20
2023-04-27T15:18:38.017Z,2.75
2023-04-27T15:23:31.327Z,2.85
2023-04-27T15:25:58.170Z,3.00
2023-04-27T15:28:24.701Z,2.85
2023-04-27T15:30:51.451Z,2.60
2023-04-27T15:33:18.121Z,2.50
2023-04-27T15:35:48.275Z,2.50
2023-04-27T15:38:15.530Z,2.70
2023-04-27T15:40:43.307Z,2.50
2023-04-27T15:43:09.851Z,2.53
2023-04-27T15:45:36.266Z,2.72
2023-04-27T15:50:30.402Z,2.72
2023-04-27T15:52:56.710Z,2.85
2023-04-27T15:55:23.094Z,2.35
2023-04-27T15:57:50.297Z,2.80
2023-04-27T16:00:17.864Z,2.50
2023-04-27T16:02:44.496Z,2.42
2023-04-27T16:05:11.133Z,2.70
2023-04-27T16:10:04.861Z,2.53
2023-04-27T16:12:31.331Z,2.75
2023-04-27T16:14:57.793Z,2.95
2023-04-27T16:19:50.836Z,2.90
2023-04-27T16:22:17.274Z,2.97
2023-04-27T16:32:03.404Z,3.25
2023-04-27T16:34:29.779Z,3.00
2023-04-27T16:36:56.242Z,3.00
2023-04-27T16:39:22.622Z,3.03
2023-04-27T16:41:49.427Z,2.90
2023-04-27T16:44:15.744Z,3.05
2023-04-27T16:46:45.456Z,2.80
2023-04-27T16:49:13.124Z,3.03
2023-04-27T16:51:40.029Z,2.92
2023-04-27T16:56:35.017Z,2.58
2023-04-27T16:59:01.377Z,3.50
2023-04-27T17:01:29.855Z,3.35
2023-04-27T17:04:00.957Z,3.50
2023-04-27T17:06:28.257Z,3.20
2023-04-27T17:08:58.033Z,3.50
2023-04-27T17:11:24.394Z,4.50
2023-04-27T17:13:50.795Z,3.63
2023-04-27T17:16:18.004Z,3.85
2023-04-27T17:18:45.498Z,3.97
2023-04-27T17:21:12.247Z,3.90
2023-04-27T17:23:41.400Z,4.25
2023-04-27T17:26:08.488Z,3.90
2023-04-27T17:28:35.119Z,4.00
2023-04-27T17:31:01.763Z,4.97
2023-04-27T17:33:28.147Z,3.80
2023-04-27T17:35:54.640Z,4.00
2023-04-27T17:38:20.989Z,4.80
2023-04-27T17:40:47.326Z,4.72
2023-04-27T17:43:13.709Z,4.32
2023-04-27T17:45:40.084Z,5.10
2023-04-27T17:48:06.740Z,4.53
2023-04-27T17:50:34.634Z,4.50
2023-04-27T17:53:01.047Z,4.85
2023-04-27T17:55:27.464Z,4.40
2023-04-27T17:57:53.842Z,4.90
2023-04-27T18:00:21.623Z,4.40
2023-04-27T18:02:48.423Z,5.82
2023-04-27T18:05:18.019Z,4.38
2023-04-27T18:07:46.208Z,4.93
2023-04-27T18:10:12.615Z,10.52
2023-04-27T18:12:38.965Z,32.42
2023-04-27T18:15:07.648Z,24.40
2023-04-27T18:17:36.063Z,7.13
2023-04-27T18:20:09.606Z,5.65
2023-04-27T18:22:37.810Z,14.25
2023-04-27T18:25:04.446Z,38.00
2023-04-27T18:27:31.850Z,27.77
2023-04-27T18:29:58.393Z,8.25
2023-04-27T18:32:24.809Z,10.25
2023-04-27T18:34:51.247Z,10.40
2023-04-27T18:37:17.674Z,6.65
2023-04-27T18:39:44.144Z,4.55
2023-04-27T18:42:10.513Z,10.13
2023-04-27T18:44:37.097Z,29.38
2023-04-27T18:47:03.406Z,6.88
2023-04-27T18:49:29.846Z,13.88
2023-04-27T18:51:56.173Z,10.45
2023-04-27T18:54:22.564Z,8.82
2023-04-27T18:56:52.929Z,5.35
2023-04-27T18:59:19.707Z,4.82
2023-04-27T19:01:46.135Z,5.50
2023-04-27T19:04:13.209Z,5.28
2023-04-27T19:06:39.731Z,4.63
2023-04-27T19:09:06.239Z,5.07
2023-04-27T19:11:32.643Z,5.13
2023-04-27T19:13:59.125Z,4.70
2023-04-27T19:16:25.620Z,5.10
2023-04-27T19:23:45.458Z,4.15
2023-04-27T19:26:13.956Z,4.53
2023-04-27T19:28:40.956Z,4.80
2023-04-27T19:31:07.693Z,4.90
2023-04-27T19:33:34.452Z,4.75
2023-04-27T19:36:01.431Z,5.30
2023-04-27T19:38:27.831Z,4.95
2023-04-27T19:40:54.239Z,4.97
2023-04-27T19:43:20.864Z,4.63
2023-04-27T19:48:16.156Z,4.53
2023-04-27T19:53:11.080Z,4.68
2023-04-27T19:55:37.827Z,4.25
2023-04-27T19:58:04.219Z,4.75
2023-04-27T20:00:30.679Z,4.63
2023-04-27T20:02:57.153Z,4.88
2023-04-27T20:07:50.344Z,4.95
2023-04-27T20:10:16.759Z,4.85
2023-04-27T20:12:55.296Z,5.00
2023-04-27T20:15:23.424Z,5.43
2023-04-27T20:17:49.855Z,4.63
2023-04-27T20:20:16.300Z,5.00
2023-04-27T20:22:42.814Z,4.90
2023-04-27T20:25:09.385Z,4.80
2023-04-27T20:27:35.878Z,5.32
2023-04-27T20:30:02.364Z,5.18
2023-04-27T20:32:28.688Z,6.38
2023-04-27T20:34:55.045Z,6.18
2023-04-27T20:37:21.377Z,6.53
2023-04-27T20:39:47.809Z,6.85
2023-04-27T20:42:14.424Z,6.68
2023-04-27T20:44:40.857Z,6.28
2023-04-27T20:47:07.154Z,5.95
2023-04-27T20:49:35.386Z,6.45
2023-04-27T20:52:02.173Z,5.78
2023-04-27T20:54:30.883Z,5.00
2023-04-27T20:56:57.784Z,4.72
2023-04-27T20:59:24.281Z,4.78
2023-04-27T21:01:50.653Z,5.00
2023-04-27T21:04:17.306Z,5.07
2023-04-27T21:06:44.060Z,5.00
2023-04-27T21:09:10.569Z,5.00
2023-04-27T21:11:36.904Z,4.80
2023-04-27T21:14:03.299Z,4.43
2023-04-27T21:16:29.801Z,4.70
2023-04-27T21:18:56.235Z,4.25
2023-04-27T21:21:23.758Z,4.40
2023-04-27T21:23:57.085Z,4.47
2023-04-27T21:26:27.137Z,4.10
2023-04-27T21:28:53.544Z,4.35
2023-04-27T21:31:20.741Z,4.00
2023-04-27T21:33:47.296Z,4.32
2023-04-27T21:36:13.713Z,4.43
2023-04-27T21:38:40.134Z,4.43
2023-04-27T21:41:06.509Z,4.70
2023-04-27T21:43:32.935Z,4.55
2023-04-27T21:45:59.593Z,4.15
2023-04-27T21:53:18.742Z,4.13
2023-04-27T21:55:45.155Z,4.50
2023-04-27T21:58:11.534Z,4.63
2023-04-27T22:00:38.329Z,4.68
2023-04-27T22:03:05.203Z,4.50
2023-04-27T22:05:33.465Z,4.60
2023-04-27T22:07:59.811Z,4.50
2023-04-27T22:10:26.252Z,5.20
2023-04-27T22:12:52.568Z,4.55
2023-04-27T22:15:20.277Z,5.07
2023-04-27T22:17:47.133Z,5.10
2023-04-27T22:20:14.408Z,4.90
2023-04-27T22:22:40.952Z,4.78
2023-04-27T22:25:07.870Z,5.32
2023-04-27T22:27:41.897Z,5.10
2023-04-27T22:30:11.132Z,5.10
2023-04-27T22:37:31.879Z,4.97
2023-04-27T22:39:58.279Z,5.15
2023-04-27T22:42:24.705Z,5.43
2023-04-27T22:44:51.156Z,5.60
2023-04-27T22:47:18.000Z,5.50
2023-04-27T22:49:44.383Z,5.55
2023-04-27T22:52:14.204Z,5.80
2023-04-27T22:54:40.588Z,5.35
2023-04-27T22:57:07.045Z,5.00
2023-04-27T22:59:33.401Z,5.20
2023-04-27T23:01:59.866Z,5.10
2023-04-27T23:04:27.305Z,5.15
2023-04-27T23:06:53.797Z,5.68
2023-04-27T23:09:21.744Z,5.78
2023-04-27T23:11:50.787Z,5.03
2023-04-27T23:14:20.874Z,5.47
2023-04-27T23:16:47.341Z,5.20
2023-04-27T23:19:13.960Z,5.15
2023-04-27T23:21:40.564Z,5.03
2023-04-27T23:24:06.951Z,5.32
2023-04-27T23:26:33.269Z,5.35
2023-04-27T23:28:59.642Z,5.18
2023-04-27T23:31:26.016Z,5.13
2023-04-27T23:33:52.437Z,4.43
2023-04-27T23:36:18.830Z,5.43
2023-04-27T23:38:45.290Z,5.30
2023-04-27T23:41:12.019Z,5.43
2023-04-27T23:46:05.678Z,4.93
2023-04-27T23:48:32.416Z,5.00
2023-04-27T23:53:25.047Z,4.65
2023-04-27T23:55:51.366Z,5.22
2023-04-27T23:58:18.584Z,5.55
